createdAt,value
2022-12-15T00:01:10.342Z,116
2022-12-15T00:02:22.607Z,121
2022-12-15T00:03:35.780Z,113
2022-12-15T00:04:47.541Z,114
2022-12-15T00:05:59.627Z,114
2022-12-15T00:07:11.853Z,119
2022-12-15T00:08:24.286Z,117
2022-12-15T00:09:36.465Z,116
2022-12-15T00:10:48.600Z,112
2022-12-15T00:12:00.688Z,118
2022-12-15T00:13:12.972Z,122
2022-12-15T00:14:25.134Z,126
2022-12-15T00:15:37.588Z,132
2022-12-15T00:16:52.730Z,121
2022-12-15T00:18:04.909Z,126
2022-12-15T00:19:17.165Z,129
2022-12-15T00:20:29.537Z,128
2022-12-15T00:21:41.612Z,126
2022-12-15T00:22:53.873Z,122
2022-12-15T00:24:11.076Z,121
2022-12-15T00:25:23.401Z,118
2022-12-15T00:26:35.535Z,118
2022-12-15T00:27:47.814Z,114
2022-12-15T00:28:59.853Z,112
2022-12-15T00:30:12.137Z,110
2022-12-15T00:31:24.454Z,109
2022-12-15T00:32:36.600Z,111
2022-12-15T00:33:48.852Z,104
2022-12-15T00:35:00.974Z,111
2022-12-15T00:36:13.305Z,111
2022-12-15T00:37:25.525Z,113
2022-12-15T00:38:37.744Z,105
2022-12-15T00:39:47.949Z,107
2022-12-15T00:40:55.161Z,108
2022-12-15T00:42:05.208Z,117
2022-12-15T00:43:12.670Z,115
2022-12-15T00:44:20.837Z,114
2022-12-15T00:45:27.136Z,113
2022-12-15T00:46:39.560Z,117
2022-12-15T00:47:51.705Z,113
2022-12-15T00:48:58.740Z,112
2022-12-15T00:50:05.852Z,116
2022-12-15T00:51:18.044Z,115
2022-12-15T00:52:25.232Z,113
2022-12-15T00:53:37.531Z,108
2022-12-15T00:54:49.644Z,107
2022-12-15T00:56:01.828Z,113
2022-12-15T00:57:14.012Z,111
2022-12-15T00:58:26.313Z,110
2022-12-15T00:59:38.688Z,108
2022-12-15T01:00:50.782Z,117
2022-12-15T01:02:03.011Z,121
2022-12-15T01:03:15.195Z,112
2022-12-15T01:04:27.382Z,116
2022-12-15T01:05:39.800Z,115
2022-12-15T01:06:51.885Z,111
2022-12-15T01:08:03.896Z,115
2022-12-15T01:09:16.205Z,122
2022-12-15T01:10:28.460Z,114
2022-12-15T01:11:40.708Z,114
2022-12-15T01:12:53.133Z,111
2022-12-15T01:14:05.516Z,108
2022-12-15T01:15:17.887Z,112
2022-12-15T01:16:30.112Z,120
2022-12-15T01:17:42.360Z,120
2022-12-15T01:18:54.684Z,117
2022-12-15T01:20:07.128Z,118
2022-12-15T01:21:23.227Z,109
2022-12-15T01:22:26.581Z,121
2022-12-15T01:23:34.483Z,119
2022-12-15T01:24:41.326Z,117
2022-12-15T01:25:49.543Z,110
2022-12-15T01:26:55.588Z,115
2022-12-15T01:28:02.620Z,112
2022-12-15T01:29:09.748Z,112
2022-12-15T01:30:16.908Z,110
2022-12-15T01:31:24.196Z,112
2022-12-15T01:32:31.340Z,114
2022-12-15T01:33:38.348Z,112
2022-12-15T01:34:45.462Z,113
2022-12-15T01:35:52.581Z,119
2022-12-15T01:36:59.671Z,114
2022-12-15T01:38:06.933Z,113
2022-12-15T01:39:13.964Z,109
2022-12-15T01:40:21.077Z,107
2022-12-15T01:41:33.401Z,111
2022-12-15T01:42:40.448Z,118
2022-12-15T01:43:47.536Z,110
2022-12-15T01:44:54.696Z,112
2022-12-15T01:46:01.811Z,111
2022-12-15T01:47:14.080Z,109
2022-12-15T01:48:21.142Z,111
2022-12-15T01:49:33.408Z,110
2022-12-15T01:50:40.612Z,116
2022-12-15T01:51:47.785Z,110
2022-12-15T01:52:55.015Z,111
2022-12-15T01:54:01.817Z,114
2022-12-15T01:55:08.967Z,111
2022-12-15T01:56:16.188Z,113
2022-12-15T01:57:23.305Z,111
2022-12-15T01:58:30.684Z,111
2022-12-15T01:59:37.653Z,108
2022-12-15T02:00:44.788Z,106
2022-12-15T02:01:52.094Z,112
2022-12-15T02:02:59.056Z,109
2022-12-15T02:04:06.029Z,110
2022-12-15T02:05:13.372Z,113
2022-12-15T02:06:20.417Z,107
2022-12-15T02:07:27.544Z,108
2022-12-15T02:08:34.614Z,104
2022-12-15T02:09:41.744Z,105
2022-12-15T02:10:48.988Z,102
2022-12-15T02:12:04.005Z,102
2022-12-15T02:13:16.273Z,102
2022-12-15T02:14:29.164Z,101
2022-12-15T02:15:36.185Z,105
2022-12-15T02:16:43.398Z,102
2022-12-15T02:17:52.948Z,100
2022-12-15T02:19:10.680Z,103
2022-12-15T02:20:21.197Z,100
2022-12-15T02:21:38.856Z,98
2022-12-15T02:22:45.837Z,96
2022-12-15T02:24:03.153Z,99
2022-12-15T02:25:20.469Z,100
2022-12-15T02:26:35.700Z,99
2022-12-15T02:27:53.205Z,101
2022-12-15T02:29:05.756Z,93
2022-12-15T02:30:17.872Z,101
2022-12-15T02:31:30.176Z,101
2022-12-15T02:32:45.488Z,104
2022-12-15T02:34:03.148Z,105
2022-12-15T02:35:15.380Z,102
2022-12-15T02:36:27.831Z,97
2022-12-15T02:37:37.365Z,102
2022-12-15T02:38:44.440Z,103
2022-12-15T02:39:51.619Z,101
2022-12-15T02:40:58.621Z,106
2022-12-15T02:42:05.804Z,109
2022-12-15T02:43:15.923Z,104
2022-12-15T02:44:23.148Z,100
2022-12-15T02:45:40.517Z,100
2022-12-15T02:46:53.717Z,102
2022-12-15T02:48:10.908Z,105
2022-12-15T02:49:28.277Z,107
2022-12-15T02:50:40.464Z,110
2022-12-15T02:51:57.661Z,114
2022-12-15T02:53:12.912Z,115
2022-12-15T02:54:27.729Z,112
2022-12-15T02:55:42.698Z,108
2022-12-15T02:56:54.952Z,115
2022-12-15T02:58:05.001Z,118
2022-12-15T02:59:22.525Z,117
2022-12-15T03:00:29.361Z,119
2022-12-15T03:01:36.641Z,119
2022-12-15T03:02:43.877Z,118
2022-12-15T03:03:50.884Z,121
2022-12-15T03:04:57.880Z,114
2022-12-15T03:06:04.928Z,111
2022-12-15T03:07:12.059Z,113
2022-12-15T03:08:19.272Z,110
2022-12-15T03:09:26.541Z,117
2022-12-15T03:10:33.853Z,108
2022-12-15T03:11:40.702Z,107
2022-12-15T03:12:47.916Z,105
2022-12-15T03:13:55.031Z,110
2022-12-15T03:15:02.368Z,104
2022-12-15T03:16:09.822Z,100
2022-12-15T03:17:16.952Z,107
2022-12-15T03:18:24.009Z,105
2022-12-15T03:19:31.080Z,102
2022-12-15T03:20:38.250Z,104
2022-12-15T03:21:45.425Z,97
2022-12-15T03:22:52.801Z,93
2022-12-15T03:24:00.132Z,100
2022-12-15T03:25:07.264Z,99
2022-12-15T03:26:14.506Z,95
2022-12-15T03:27:21.550Z,94
2022-12-15T03:28:28.756Z,100
2022-12-15T03:29:36.113Z,98
2022-12-15T03:30:43.183Z,98
2022-12-15T03:31:50.403Z,99
2022-12-15T03:32:57.356Z,103
2022-12-15T03:34:04.427Z,99
2022-12-15T03:35:11.609Z,100
2022-12-15T03:36:18.725Z,100
2022-12-15T03:37:25.894Z,96
2022-12-15T03:38:33.083Z,96
2022-12-15T03:39:40.140Z,97
2022-12-15T03:40:47.248Z,96
2022-12-15T03:41:54.443Z,97
2022-12-15T03:43:01.493Z,97
2022-12-15T03:44:08.687Z,93
2022-12-15T03:45:15.688Z,92
2022-12-15T03:46:25.451Z,99
2022-12-15T03:47:32.653Z,84
2022-12-15T03:48:39.725Z,83
2022-12-15T03:49:46.894Z,82
2022-12-15T03:50:54.184Z,81
2022-12-15T03:52:01.164Z,80
2022-12-15T03:53:08.252Z,80
2022-12-15T03:54:15.428Z,82
2022-12-15T03:55:22.499Z,78
2022-12-15T03:56:29.968Z,75
2022-12-15T03:57:36.883Z,80
2022-12-15T03:58:43.944Z,80
2022-12-15T03:59:51.216Z,82
2022-12-15T04:00:59.195Z,82
2022-12-15T04:02:11.553Z,85
2022-12-15T04:03:18.606Z,85
2022-12-15T04:04:25.912Z,85
2022-12-15T04:05:32.811Z,84
2022-12-15T04:06:40.024Z,77
2022-12-15T04:07:47.228Z,81
2022-12-15T04:08:54.356Z,80
2022-12-15T04:10:01.348Z,81
2022-12-15T04:11:08.493Z,72
2022-12-15T04:12:15.679Z,74
2022-12-15T04:13:22.850Z,72
2022-12-15T04:14:30.239Z,74
2022-12-15T04:15:37.093Z,68
2022-12-15T04:16:44.268Z,61
2022-12-15T04:17:51.316Z,59
2022-12-15T04:18:58.547Z,59
2022-12-15T04:20:10.585Z,59
2022-12-15T04:21:17.876Z,58
2022-12-15T04:22:24.988Z,56
2022-12-15T04:23:32.415Z,57
2022-12-15T04:24:39.228Z,67
2022-12-15T04:25:51.653Z,66
2022-12-15T04:27:03.708Z,59
2022-12-15T04:28:15.852Z,56
2022-12-15T04:29:28.089Z,55
2022-12-15T04:30:40.413Z,50
2022-12-15T04:31:55.963Z,55
2022-12-15T04:33:08.532Z,43
2022-12-15T04:34:20.519Z,42
2022-12-15T04:35:32.773Z,43
2022-12-15T04:36:45.167Z,33
2022-12-15T04:37:57.320Z,29
2022-12-15T04:39:09.379Z,32
2022-12-15T04:40:21.594Z,29
2022-12-15T04:41:33.912Z,27
2022-12-15T04:42:46.091Z,27
2022-12-15T04:43:58.550Z,25
2022-12-15T04:45:14.238Z,26
2022-12-15T04:46:23.323Z,25
2022-12-15T04:47:35.580Z,28
2022-12-15T04:48:47.747Z,27
2022-12-15T04:49:59.845Z,28
2022-12-15T04:51:12.139Z,25
2022-12-15T04:52:24.315Z,25
2022-12-15T04:53:36.563Z,26
2022-12-15T04:54:48.806Z,32
2022-12-15T04:56:00.982Z,28
2022-12-15T04:57:15.687Z,28
2022-12-15T04:58:27.987Z,25
2022-12-15T04:59:40.148Z,27
2022-12-15T05:00:52.447Z,25
2022-12-15T05:02:04.775Z,25
2022-12-15T05:03:18.628Z,31
2022-12-15T05:04:29.034Z,26
2022-12-15T05:05:41.211Z,29
2022-12-15T05:06:53.723Z,25
2022-12-15T05:08:06.152Z,25
2022-12-15T05:09:18.383Z,29
2022-12-15T05:10:30.570Z,30
2022-12-15T05:11:42.828Z,27
2022-12-15T05:12:55.444Z,28
2022-12-15T05:14:10.231Z,29
2022-12-15T05:15:22.466Z,33
2022-12-15T05:16:34.735Z,27
2022-12-15T05:17:47.089Z,27
2022-12-15T05:18:59.135Z,25
2022-12-15T05:20:11.271Z,25
2022-12-15T05:21:23.491Z,25
2022-12-15T05:22:35.758Z,27
2022-12-15T05:23:48.126Z,29
2022-12-15T05:25:00.286Z,33
2022-12-15T05:26:12.351Z,30
2022-12-15T05:27:24.586Z,30
2022-12-15T05:28:36.863Z,28
2022-12-15T05:29:49.155Z,26
2022-12-15T05:31:01.215Z,25
2022-12-15T05:32:13.409Z,25
2022-12-15T05:33:20.689Z,27
2022-12-15T05:34:27.726Z,29
2022-12-15T05:35:34.780Z,25
2022-12-15T05:36:41.899Z,28
2022-12-15T05:37:49.075Z,25
2022-12-15T05:38:56.223Z,29
2022-12-15T05:40:03.447Z,25
2022-12-15T05:41:10.907Z,25
2022-12-15T05:42:18.000Z,29
2022-12-15T05:43:26.630Z,26
2022-12-15T05:44:32.388Z,33
2022-12-15T05:45:39.495Z,29
2022-12-15T05:46:46.848Z,26
2022-12-15T05:47:53.805Z,26
2022-12-15T05:49:00.835Z,28
2022-12-15T05:50:08.346Z,25
2022-12-15T05:51:15.578Z,33
2022-12-15T05:52:22.781Z,28
2022-12-15T05:53:30.401Z,30
2022-12-15T05:54:37.196Z,27
2022-12-15T05:55:44.116Z,29
2022-12-15T05:56:51.296Z,28
2022-12-15T05:57:58.511Z,27
2022-12-15T05:59:05.490Z,26
2022-12-15T06:00:12.835Z,27
2022-12-15T06:01:19.899Z,30
2022-12-15T06:02:27.032Z,29
2022-12-15T06:03:34.422Z,32
2022-12-15T06:04:41.297Z,28
2022-12-15T06:05:53.154Z,29
2022-12-15T06:06:55.495Z,26
2022-12-15T06:08:02.510Z,26
2022-12-15T06:09:09.610Z,29
2022-12-15T06:10:16.742Z,27
2022-12-15T06:11:23.863Z,26
2022-12-15T06:12:31.070Z,28
2022-12-15T06:13:38.554Z,27
2022-12-15T06:14:45.878Z,28
2022-12-15T06:15:52.981Z,31
2022-12-15T06:17:03.048Z,27
2022-12-15T06:18:10.183Z,26
2022-12-15T06:19:17.326Z,27
2022-12-15T06:20:24.626Z,29
2022-12-15T06:21:31.828Z,31
2022-12-15T06:22:45.369Z,33
2022-12-15T06:23:49.072Z,32
2022-12-15T06:24:56.190Z,25
2022-12-15T06:26:03.135Z,25
2022-12-15T06:27:15.860Z,27
2022-12-15T06:28:23.032Z,25
2022-12-15T06:29:30.207Z,34
2022-12-15T06:30:37.306Z,35
2022-12-15T06:31:44.587Z,29
2022-12-15T06:32:51.795Z,25
2022-12-15T06:34:01.953Z,30
2022-12-15T06:35:05.754Z,27
2022-12-15T06:36:12.982Z,25
2022-12-15T06:37:20.198Z,26
2022-12-15T06:38:27.424Z,29
2022-12-15T06:39:34.341Z,30
2022-12-15T06:40:41.446Z,35
2022-12-15T06:41:48.677Z,29
2022-12-15T06:42:55.847Z,27
2022-12-15T06:44:02.850Z,28
2022-12-15T06:45:10.143Z,28
2022-12-15T06:46:17.164Z,31
2022-12-15T06:47:24.227Z,28
2022-12-15T06:48:31.359Z,36
2022-12-15T06:49:38.539Z,36
2022-12-15T06:50:45.662Z,41
2022-12-15T06:51:53.501Z,36
2022-12-15T06:53:00.846Z,38
2022-12-15T06:54:07.938Z,37
2022-12-15T06:55:15.158Z,34
2022-12-15T06:56:27.184Z,44
2022-12-15T06:57:32.505Z,33
2022-12-15T06:58:39.652Z,37
2022-12-15T06:59:46.930Z,31
2022-12-15T07:00:53.859Z,30
2022-12-15T07:02:01.158Z,26
2022-12-15T07:03:11.100Z,28
2022-12-15T07:04:18.406Z,29
2022-12-15T07:05:25.386Z,26
2022-12-15T07:06:32.620Z,25
2022-12-15T07:07:39.809Z,27
2022-12-15T07:08:46.837Z,30
2022-12-15T07:09:53.841Z,25
2022-12-15T07:11:00.987Z,25
2022-12-15T07:12:08.475Z,25
2022-12-15T07:13:15.818Z,26
2022-12-15T07:14:22.845Z,32
2022-12-15T07:15:30.054Z,28
2022-12-15T07:16:37.240Z,25
2022-12-15T07:17:44.346Z,26
2022-12-15T07:18:51.578Z,26
2022-12-15T07:19:59.052Z,25
2022-12-15T07:21:06.079Z,25
2022-12-15T07:22:13.198Z,28
2022-12-15T07:23:29.574Z,26
2022-12-15T07:24:27.490Z,28
2022-12-15T07:25:35.134Z,27
2022-12-15T07:26:42.307Z,28
2022-12-15T07:27:49.402Z,26
2022-12-15T07:28:56.850Z,26
2022-12-15T07:30:03.568Z,25
2022-12-15T07:31:11.258Z,30
2022-12-15T07:32:18.468Z,26
2022-12-15T07:33:25.739Z,27
2022-12-15T07:34:32.677Z,25
2022-12-15T07:35:39.738Z,27
2022-12-15T07:36:51.729Z,25
2022-12-15T07:37:54.074Z,25
2022-12-15T07:39:01.214Z,27
2022-12-15T07:40:08.224Z,26
2022-12-15T07:41:15.293Z,27
2022-12-15T07:42:22.851Z,25
2022-12-15T07:43:30.548Z,25
2022-12-15T07:44:37.420Z,25
2022-12-15T07:45:48.292Z,25
2022-12-15T07:46:56.680Z,25
2022-12-15T07:48:03.859Z,26
2022-12-15T07:49:10.778Z,25
2022-12-15T07:50:17.884Z,27
2022-12-15T07:51:25.037Z,25
2022-12-15T07:52:32.218Z,27
2022-12-15T07:53:39.381Z,26
2022-12-15T07:54:46.580Z,25
2022-12-15T07:56:06.609Z,27
2022-12-15T07:57:00.636Z,30
2022-12-15T07:58:07.792Z,30
2022-12-15T07:59:23.580Z,32
2022-12-15T08:00:38.131Z,40
2022-12-15T08:01:45.289Z,51
2022-12-15T08:02:52.277Z,30
2022-12-15T08:03:59.488Z,27
2022-12-15T08:05:06.303Z,39
2022-12-15T08:06:13.531Z,33
2022-12-15T08:07:20.689Z,34
2022-12-15T08:08:27.791Z,36
2022-12-15T08:09:34.952Z,34
2022-12-15T08:10:42.103Z,35
2022-12-15T08:11:49.222Z,45
2022-12-15T08:12:56.501Z,55
2022-12-15T08:14:05.574Z,75
2022-12-15T08:15:10.552Z,90
2022-12-15T08:16:17.777Z,96
2022-12-15T08:17:24.824Z,99
2022-12-15T08:18:32.035Z,106
2022-12-15T08:19:39.204Z,108
2022-12-15T08:20:46.237Z,107
2022-12-15T08:21:53.375Z,99
2022-12-15T08:23:00.423Z,98
2022-12-15T08:24:07.657Z,92
2022-12-15T08:25:14.783Z,95
2022-12-15T08:26:26.764Z,92
2022-12-15T08:27:29.007Z,91
2022-12-15T08:28:36.120Z,99
2022-12-15T08:29:51.737Z,95
2022-12-15T08:30:50.495Z,90
2022-12-15T08:31:57.631Z,92
2022-12-15T08:33:04.588Z,105
2022-12-15T08:34:11.712Z,96
2022-12-15T08:35:39.196Z,88
2022-12-15T08:36:27.043Z,85
2022-12-15T08:37:34.243Z,88
2022-12-15T08:38:41.402Z,85
2022-12-15T08:39:48.443Z,82
2022-12-15T08:40:55.712Z,81
2022-12-15T08:42:03.170Z,79
2022-12-15T08:43:10.317Z,85
2022-12-15T08:44:17.628Z,75
2022-12-15T08:45:24.739Z,73
2022-12-15T08:46:31.851Z,73
2022-12-15T08:47:38.919Z,70
2022-12-15T08:48:46.109Z,70
2022-12-15T08:49:53.230Z,71
2022-12-15T08:51:00.322Z,72
2022-12-15T08:52:07.361Z,65
2022-12-15T08:53:30.571Z,58
2022-12-15T08:54:21.804Z,67
2022-12-15T08:55:28.827Z,63
2022-12-15T08:56:36.123Z,63
2022-12-15T08:57:43.171Z,49
2022-12-15T08:58:50.274Z,45
2022-12-15T09:00:03.562Z,44
2022-12-15T09:01:11.117Z,46
2022-12-15T09:02:18.313Z,42
2022-12-15T09:03:25.363Z,43
2022-12-15T09:04:32.680Z,44
2022-12-15T09:05:39.699Z,44
2022-12-15T09:06:50.269Z,48
2022-12-15T09:07:54.456Z,48
2022-12-15T09:09:01.483Z,46
2022-12-15T09:10:08.703Z,43
2022-12-15T09:11:16.291Z,43
2022-12-15T09:12:23.374Z,42
2022-12-15T09:13:31.096Z,39
2022-12-15T09:14:37.798Z,44
2022-12-15T09:16:08.676Z,40
2022-12-15T09:16:52.105Z,37
2022-12-15T09:17:59.205Z,28
2022-12-15T09:19:06.125Z,33
2022-12-15T09:20:17.618Z,35
2022-12-15T09:21:20.372Z,33
2022-12-15T09:22:27.566Z,28
2022-12-15T09:23:35.538Z,27
2022-12-15T09:24:41.873Z,25
2022-12-15T09:25:48.960Z,25
2022-12-15T09:26:56.118Z,30
2022-12-15T09:28:03.352Z,30
2022-12-15T09:29:10.312Z,31
2022-12-15T09:30:17.420Z,28
2022-12-15T09:31:24.665Z,26
2022-12-15T09:32:31.694Z,26
2022-12-15T09:33:38.879Z,28
2022-12-15T09:34:46.094Z,26
2022-12-15T09:35:56.498Z,25
2022-12-15T09:37:06.821Z,30
2022-12-15T09:38:14.194Z,31
2022-12-15T09:39:21.086Z,28
2022-12-15T09:40:28.192Z,31
2022-12-15T09:41:35.295Z,30
2022-12-15T09:42:42.556Z,25
2022-12-15T09:43:50.309Z,25
2022-12-15T09:45:04.964Z,25
2022-12-15T09:46:17.185Z,31
2022-12-15T09:47:26.891Z,25
2022-12-15T09:48:44.207Z,27
2022-12-15T09:49:51.346Z,26
2022-12-15T09:51:01.365Z,26
2022-12-15T09:52:11.196Z,25
2022-12-15T09:53:52.772Z,25
2022-12-15T09:54:25.359Z,28
2022-12-15T09:55:32.437Z,27
2022-12-15T09:56:39.664Z,26
2022-12-15T09:57:49.861Z,26
2022-12-15T09:58:56.968Z,30
2022-12-15T10:00:04.022Z,27
2022-12-15T10:01:11.634Z,29
2022-12-15T10:02:26.462Z,25
2022-12-15T10:03:37.152Z,28
2022-12-15T10:04:54.043Z,30
2022-12-15T10:06:18.207Z,31
2022-12-15T10:07:18.997Z,26
2022-12-15T10:08:25.978Z,32
2022-12-15T10:09:33.139Z,29
2022-12-15T10:10:40.321Z,25
2022-12-15T10:11:57.636Z,25
2022-12-15T10:13:12.717Z,32
2022-12-15T10:14:24.953Z,31
2022-12-15T10:15:34.618Z,39
2022-12-15T10:16:50.292Z,35
2022-12-15T10:18:02.148Z,36
2022-12-15T10:19:14.323Z,33
2022-12-15T10:20:29.278Z,26
2022-12-15T10:21:36.262Z,25
2022-12-15T10:22:43.414Z,27
2022-12-15T10:23:50.737Z,29
2022-12-15T10:26:04.638Z,33
2022-12-15T10:27:21.911Z,36
2022-12-15T10:28:39.676Z,29
2022-12-15T10:29:57.106Z,31
2022-12-15T10:31:07.186Z,25
2022-12-15T10:32:19.914Z,26
2022-12-15T10:33:35.151Z,27
2022-12-15T10:34:41.888Z,25
2022-12-15T10:35:48.985Z,27
2022-12-15T10:36:56.152Z,25
2022-12-15T10:38:03.070Z,27
2022-12-15T10:39:12.907Z,32
2022-12-15T10:40:17.398Z,29
2022-12-15T10:41:24.547Z,36
2022-12-15T10:42:31.662Z,33
2022-12-15T10:43:38.779Z,33
2022-12-15T10:44:50.255Z,36
2022-12-15T10:45:58.158Z,27
2022-12-15T10:47:10.226Z,32
2022-12-15T10:48:22.667Z,29
2022-12-15T10:49:29.658Z,38
2022-12-15T10:50:36.798Z,34
2022-12-15T10:51:43.981Z,30
2022-12-15T10:52:51.098Z,35
2022-12-15T10:53:58.307Z,41
2022-12-15T10:55:05.402Z,32
2022-12-15T10:56:26.090Z,28
2022-12-15T10:57:29.775Z,34
2022-12-15T10:58:37.235Z,27
2022-12-15T10:59:50.304Z,28
2022-12-15T11:00:57.518Z,31
2022-12-15T11:02:10.058Z,34
2022-12-15T11:03:22.433Z,32
2022-12-15T11:04:29.399Z,28
2022-12-15T11:05:36.465Z,29
2022-12-15T11:06:43.620Z,33
2022-12-15T11:07:50.776Z,35
2022-12-15T11:08:57.840Z,26
2022-12-15T11:10:16.232Z,36
2022-12-15T11:11:30.868Z,29
2022-12-15T11:12:43.122Z,30
2022-12-15T11:14:03.320Z,25
2022-12-15T11:15:13.262Z,29
2022-12-15T11:16:26.923Z,31
2022-12-15T11:17:34.897Z,25
2022-12-15T11:18:42.074Z,29
2022-12-15T11:21:04.561Z,29
2022-12-15T11:22:16.885Z,33
2022-12-15T11:23:35.038Z,30
2022-12-15T11:24:49.930Z,33
2022-12-15T11:25:59.189Z,37
2022-12-15T11:27:04.625Z,36
2022-12-15T11:28:16.864Z,30
2022-12-15T11:29:27.100Z,34
2022-12-15T11:30:36.944Z,30
2022-12-15T11:31:47.064Z,37
2022-12-15T11:32:54.067Z,32
2022-12-15T11:34:03.716Z,26
2022-12-15T11:35:13.918Z,25
2022-12-15T11:36:23.587Z,33
2022-12-15T11:37:38.441Z,27
2022-12-15T11:38:48.631Z,28
2022-12-15T11:40:00.921Z,30
2022-12-15T11:41:18.276Z,26
2022-12-15T11:42:33.416Z,29
2022-12-15T11:43:50.388Z,37
2022-12-15T11:45:05.443Z,35
2022-12-15T11:46:17.685Z,36
2022-12-15T11:47:29.927Z,26
2022-12-15T11:48:47.220Z,30
2022-12-15T11:49:59.487Z,28
2022-12-15T11:51:11.644Z,25
2022-12-15T11:52:21.276Z,41
2022-12-15T11:53:36.849Z,37
2022-12-15T11:54:43.728Z,36
2022-12-15T11:55:58.483Z,36
2022-12-15T11:57:15.703Z,34
2022-12-15T11:58:33.471Z,40
2022-12-15T11:59:50.452Z,45
2022-12-15T12:01:02.494Z,42
2022-12-15T12:02:12.921Z,43
2022-12-15T12:03:27.545Z,29
2022-12-15T12:04:42.742Z,42
2022-12-15T12:05:58.067Z,42
2022-12-15T12:07:10.272Z,38
2022-12-15T12:08:22.474Z,36
2022-12-15T12:09:29.627Z,33
2022-12-15T12:10:39.835Z,33
2022-12-15T12:11:54.626Z,34
2022-12-15T12:13:07.336Z,34
2022-12-15T12:14:24.623Z,37
2022-12-15T12:15:36.830Z,32
2022-12-15T12:16:49.091Z,37
2022-12-15T12:18:06.233Z,30
2022-12-15T12:19:21.286Z,32
2022-12-15T12:20:31.304Z,38
2022-12-15T12:22:55.739Z,29
2022-12-15T12:24:08.358Z,32
2022-12-15T12:25:20.666Z,36
2022-12-15T12:26:27.650Z,39
2022-12-15T12:27:37.860Z,37
2022-12-15T12:28:45.006Z,31
2022-12-15T12:29:52.142Z,32
2022-12-15T12:31:04.304Z,35
2022-12-15T12:32:11.442Z,33
2022-12-15T12:33:21.132Z,35
2022-12-15T12:34:33.338Z,39
2022-12-15T12:35:43.081Z,37
2022-12-15T12:36:50.246Z,46
2022-12-15T12:38:01.286Z,44
2022-12-15T12:39:07.469Z,44
2022-12-15T12:40:14.525Z,46
2022-12-15T12:41:21.732Z,48
2022-12-15T12:42:39.140Z,47
2022-12-15T12:43:48.560Z,45
2022-12-15T12:44:56.500Z,47
2022-12-15T12:46:03.406Z,49
2022-12-15T12:47:20.792Z,51
2022-12-15T12:48:30.477Z,52
2022-12-15T12:49:42.822Z,54
2022-12-15T12:50:50.615Z,55
2022-12-15T12:51:57.163Z,56
2022-12-15T12:53:04.681Z,58
2022-12-15T12:54:11.634Z,57
2022-12-15T12:55:31.842Z,60
2022-12-15T12:56:45.394Z,56
2022-12-15T12:57:51.865Z,56
2022-12-15T12:58:59.054Z,59
2022-12-15T13:00:06.086Z,60
2022-12-15T13:01:21.113Z,57
2022-12-15T13:02:36.228Z,64
2022-12-15T13:03:43.147Z,61
2022-12-15T13:04:50.498Z,64
2022-12-15T13:06:06.035Z,60
2022-12-15T13:07:23.423Z,64
2022-12-15T13:08:36.349Z,56
2022-12-15T13:09:47.706Z,58
2022-12-15T13:10:53.464Z,57
2022-12-15T13:13:07.632Z,67
2022-12-15T13:14:24.260Z,69
2022-12-15T13:15:30.033Z,67
2022-12-15T13:17:01.113Z,71
2022-12-15T13:17:50.275Z,68
2022-12-15T13:19:00.099Z,71
2022-12-15T13:20:07.157Z,70
2022-12-15T13:21:16.938Z,75
2022-12-15T13:22:34.875Z,78
2022-12-15T13:23:41.810Z,78
2022-12-15T13:24:50.317Z,78
2022-12-15T13:25:56.415Z,78
2022-12-15T13:27:03.126Z,77
2022-12-15T13:28:13.303Z,81
2022-12-15T13:29:25.642Z,76
2022-12-15T13:30:37.136Z,79
2022-12-15T13:31:44.393Z,77
2022-12-15T13:32:51.487Z,77
2022-12-15T13:33:58.919Z,82
2022-12-15T13:35:05.832Z,85
2022-12-15T13:36:16.415Z,82
2022-12-15T13:37:33.887Z,84
2022-12-15T13:38:57.371Z,84
2022-12-15T13:40:04.416Z,89
2022-12-15T13:41:21.859Z,87
2022-12-15T13:42:41.788Z,96
2022-12-15T13:43:36.631Z,93
2022-12-15T13:44:43.697Z,95
2022-12-15T13:45:57.976Z,92
2022-12-15T13:47:05.023Z,92
2022-12-15T13:48:19.837Z,97
2022-12-15T13:49:34.590Z,96
2022-12-15T13:50:51.911Z,99
2022-12-15T13:52:07.120Z,98
2022-12-15T13:53:24.338Z,102
2022-12-15T13:54:31.596Z,98
2022-12-15T13:55:38.703Z,100
2022-12-15T13:56:45.877Z,98
2022-12-15T13:57:53.350Z,99
2022-12-15T13:59:10.771Z,98
2022-12-15T14:00:20.982Z,97
2022-12-15T14:01:32.177Z,91
2022-12-15T14:02:35.247Z,99
2022-12-15T14:03:42.506Z,101
2022-12-15T14:05:00.498Z,97
2022-12-15T14:06:11.845Z,99
2022-12-15T14:07:19.061Z,98
2022-12-15T14:08:26.149Z,98
2022-12-15T14:09:33.349Z,97
2022-12-15T14:10:40.631Z,99
2022-12-15T14:11:54.059Z,99
2022-12-15T14:13:00.024Z,100
2022-12-15T14:14:06.972Z,95
2022-12-15T14:15:14.147Z,101
2022-12-15T14:16:21.226Z,108
2022-12-15T14:17:28.440Z,109
2022-12-15T14:18:35.585Z,112
2022-12-15T14:19:45.780Z,112
2022-12-15T14:20:52.914Z,116
2022-12-15T14:22:00.069Z,118
2022-12-15T14:23:07.094Z,115
2022-12-15T14:24:37.912Z,112
2022-12-15T14:25:35.137Z,113
2022-12-15T14:26:42.481Z,118
2022-12-15T14:27:50.637Z,118
2022-12-15T14:28:56.545Z,119
2022-12-15T14:30:06.132Z,115
2022-12-15T14:31:18.602Z,116
2022-12-15T14:32:25.574Z,118
2022-12-15T14:33:33.123Z,120
2022-12-15T14:34:39.830Z,120
2022-12-15T14:35:49.713Z,117
2022-12-15T14:36:54.738Z,118
2022-12-15T14:38:01.747Z,122
2022-12-15T14:39:09.159Z,120
2022-12-15T14:40:28.362Z,121
2022-12-15T14:41:29.737Z,120
2022-12-15T14:42:39.799Z,121
2022-12-15T14:43:46.935Z,118
2022-12-15T14:44:57.625Z,123
2022-12-15T14:46:01.269Z,121
2022-12-15T14:47:13.434Z,116
2022-12-15T14:48:40.347Z,120
2022-12-15T14:49:30.794Z,122
2022-12-15T14:50:42.971Z,118
2022-12-15T14:51:50.077Z,123
2022-12-15T14:52:57.512Z,121
2022-12-15T14:54:07.433Z,122
2022-12-15T14:55:24.768Z,118
2022-12-15T14:56:40.245Z,124
2022-12-15T14:57:47.323Z,122
2022-12-15T14:58:54.413Z,118
2022-12-15T15:00:04.590Z,121
2022-12-15T15:01:22.316Z,119
2022-12-15T15:02:37.901Z,122
2022-12-15T15:03:08.328Z,27
2022-12-15T15:03:08.435Z,66
2022-12-15T15:03:12.455Z,25
2022-12-15T15:03:14.949Z,38
2022-12-15T15:03:44.699Z,123
2022-12-15T15:04:51.927Z,121
2022-12-15T15:06:04.092Z,121
2022-12-15T15:07:11.159Z,122
2022-12-15T15:08:18.277Z,120
2022-12-15T15:09:25.667Z,122
2022-12-15T15:10:32.530Z,123
2022-12-15T15:11:39.648Z,123
2022-12-15T15:12:46.858Z,120
2022-12-15T15:13:53.965Z,123
2022-12-15T15:15:01.027Z,122
2022-12-15T15:16:08.393Z,117
2022-12-15T15:17:19.028Z,118
2022-12-15T15:18:25.940Z,122
2022-12-15T15:19:36.131Z,122
2022-12-15T15:20:40.364Z,125
2022-12-15T15:21:47.385Z,115
2022-12-15T15:22:54.460Z,123
2022-12-15T15:24:11.789Z,123
2022-12-15T15:25:18.885Z,122
2022-12-15T15:26:28.544Z,125
2022-12-15T15:27:35.728Z,125
2022-12-15T15:28:43.053Z,124
2022-12-15T15:29:50.107Z,121
2022-12-15T15:30:57.116Z,118
2022-12-15T15:32:04.284Z,121
2022-12-15T15:33:16.899Z,124
2022-12-15T15:34:23.831Z,123
2022-12-15T15:35:30.975Z,125
2022-12-15T15:36:38.174Z,124
2022-12-15T15:37:45.371Z,126
2022-12-15T15:38:52.671Z,123
2022-12-15T15:39:59.730Z,124
2022-12-15T15:41:07.564Z,124
2022-12-15T15:42:17.382Z,119
2022-12-15T15:43:24.686Z,122
2022-12-15T15:44:31.744Z,121
2022-12-15T15:45:38.893Z,121
2022-12-15T15:46:46.035Z,121
2022-12-15T15:47:55.945Z,121
2022-12-15T15:49:00.216Z,118
2022-12-15T15:50:07.353Z,118
2022-12-15T15:51:16.934Z,118
2022-12-15T15:52:24.157Z,115
2022-12-15T15:53:31.368Z,116
2022-12-15T15:54:38.410Z,119
2022-12-15T15:55:45.532Z,119
2022-12-15T15:56:52.699Z,119
2022-12-15T15:57:59.904Z,116
2022-12-15T15:59:06.928Z,116
2022-12-15T16:00:17.083Z,116
2022-12-15T16:01:24.699Z,112
2022-12-15T16:02:31.909Z,115
2022-12-15T16:03:39.121Z,112
2022-12-15T16:04:46.252Z,113
2022-12-15T16:05:53.484Z,110
2022-12-15T16:07:00.541Z,111
2022-12-15T16:08:07.985Z,114
2022-12-15T16:09:17.956Z,112
2022-12-15T16:10:25.079Z,111
2022-12-15T16:11:32.329Z,106
2022-12-15T16:12:39.591Z,104
2022-12-15T16:13:49.639Z,106
2022-12-15T16:14:56.870Z,104
2022-12-15T16:16:03.996Z,107
2022-12-15T16:17:11.003Z,104
2022-12-15T16:18:18.016Z,101